Time;durP1;ratioP1;P1;durP2;ratioP2;P2;SDS_P1;SDS_P2;PMS_P1;PMS_P2;Temp;Humidity;BMP_temperature;BMP_pressure;BME280_temperature;BME280_humidity;BME280_pressure;Samples;Min_cycle;Max_cycle;Signal;HPM_P1;HPM_P2
2023/04/20 00:00:56;;;;;;;4.63;3.38;;;;;;;;;;5054022;28;20025;-75
2023/04/20 00:03:21;;;;;;;4.68;3.50;;;;;;;;;;5053697;28;20136;-76
2023/04/20 00:05:48;;;;;;;4.30;3.40;;;;;;;;;;5054841;28;20021;-76
2023/04/20 00:08:14;;;;;;;4.32;3.03;;;;;;;;;;5056875;28;20028;-74
2023/04/20 00:10:40;;;;;;;4.97;3.33;;;;;;;;;;5055421;28;20025;-75
2023/04/20 00:13:05;;;;;;;5.75;3.47;;;;;;;;;;5055311;28;20543;-73
2023/04/20 00:15:32;;;;;;;4.80;3.22;;;;;;;;;;5056852;28;20024;-75
2023/04/20 00:17:57;;;;;;;5.07;3.40;;;;;;;;;;5056751;28;20391;-74
2023/04/20 00:20:23;;;;;;;4.88;3.33;;;;;;;;;;5056649;28;20021;-74
2023/04/20 00:22:48;;;;;;;4.25;3.28;;;;;;;;;;5056565;28;20122;-75
2023/04/20 00:25:13;;;;;;;4.80;3.23;;;;;;;;;;5055244;28;20036;-74
2023/04/20 00:27:39;;;;;;;5.25;3.45;;;;;;;;;;5056463;28;20250;-74
2023/04/20 00:30:05;;;;;;;5.05;3.60;;;;;;;;;;5056810;28;20032;-73
2023/04/20 00:32:30;;;;;;;4.15;3.20;;;;;;;;;;5056607;28;20510;-75
2023/04/20 00:34:55;;;;;;;6.10;3.72;;;;;;;;;;5056471;28;20524;-75
2023/04/20 00:37:20;;;;;;;4.93;3.80;;;;;;;;;;5056175;28;20060;-74
2023/04/20 00:39:46;;;;;;;5.40;3.70;;;;;;;;;;5055097;28;20029;-74
2023/04/20 00:42:11;;;;;;;5.13;3.67;;;;;;;;;;5056796;28;20028;-74
2023/04/20 00:44:36;;;;;;;5.77;3.60;;;;;;;;;;5055888;28;20278;-73
2023/04/20 00:47:01;;;;;;;5.80;3.70;;;;;;;;;;5056394;28;20333;-83
2023/04/20 00:49:29;;;;;;;5.20;3.67;;;;;;;;;;5056399;28;20052;-76
2023/04/20 00:51:58;;;;;;;5.15;4.00;;;;;;;;;;5055773;28;20029;-74
2023/04/20 00:54:23;;;;;;;5.38;3.63;;;;;;;;;;5056152;28;20017;-73
2023/04/20 00:56:50;;;;;;;6.20;4.35;;;;;;;;;;5055952;28;20035;-74
2023/04/20 00:59:15;;;;;;;5.43;4.18;;;;;;;;;;5056008;28;20040;-74
2023/04/20 01:01:41;;;;;;;5.60;3.55;;;;;;;;;;5056104;28;20388;-74
2023/04/20 01:04:07;;;;;;;5.15;3.47;;;;;;;;;;5055121;28;20151;-74
2023/04/20 01:06:33;;;;;;;5.05;3.35;;;;;;;;;;5054388;28;20060;-75
2023/04/20 01:08:58;;;;;;;4.50;3.22;;;;;;;;;;5055775;28;20480;-75
2023/04/20 01:11:23;;;;;;;4.00;3.42;;;;;;;;;;5055580;28;20037;-74
2023/04/20 01:13:48;;;;;;;5.97;3.25;;;;;;;;;;5055568;28;20044;-74
2023/04/20 01:16:15;;;;;;;4.95;3.17;;;;;;;;;;5054575;28;20049;-74
2023/04/20 01:18:46;;;;;;;4.50;3.53;;;;;;;;;;5055260;28;20036;-75
2023/04/20 01:21:12;;;;;;;5.03;3.60;;;;;;;;;;5055394;28;20027;-75
2023/04/20 01:23:37;;;;;;;4.72;3.60;;;;;;;;;;5055312;28;20037;-75
2023/04/20 01:26:07;;;;;;;4.68;3.58;;;;;;;;;;5055134;28;20071;-75
2023/04/20 01:28:32;;;;;;;3.83;3.33;;;;;;;;;;5055238;28;20067;-75
2023/04/20 01:30:58;;;;;;;4.53;3.45;;;;;;;;;;5055885;28;20392;-75
2023/04/20 01:33:23;;;;;;;4.63;3.65;;;;;;;;;;5055298;28;20035;-75
2023/04/20 01:35:48;;;;;;;3.70;3.15;;;;;;;;;;5055581;28;20491;-74
2023/04/20 01:38:21;;;;;;;4.10;3.35;;;;;;;;;;5055110;28;20037;-74
2023/04/20 01:40:46;;;;;;;4.60;3.23;;;;;;;;;;5055287;28;20025;-75
2023/04/20 01:43:14;;;;;;;4.45;3.17;;;;;;;;;;5055205;28;20029;-74
2023/04/20 01:45:39;;;;;;;5.28;3.45;;;;;;;;;;5054997;28;20059;-75
2023/04/20 01:48:05;;;;;;;5.38;4.07;;;;;;;;;;5055217;28;20027;-74
2023/04/20 01:50:30;;;;;;;7.15;4.43;;;;;;;;;;5055408;28;20056;-75
2023/04/20 01:52:55;;;;;;;6.28;3.80;;;;;;;;;;5055233;28;20382;-75
2023/04/20 01:55:20;;;;;;;4.45;3.35;;;;;;;;;;5054756;28;20075;-75
2023/04/20 01:57:46;;;;;;;5.15;3.45;;;;;;;;;;5054812;28;20066;-74
2023/04/20 02:00:11;;;;;;;5.00;3.58;;;;;;;;;;5054751;28;20453;-74
2023/04/20 02:02:37;;;;;;;4.47;3.70;;;;;;;;;;5054492;28;20519;-75
2023/04/20 02:05:02;;;;;;;4.60;3.67;;;;;;;;;;5054901;28;20103;-75
2023/04/20 02:07:28;;;;;;;4.60;3.42;;;;;;;;;;5054651;28;20028;-75
2023/04/20 02:09:53;;;;;;;5.10;3.65;;;;;;;;;;5054394;28;20037;-75
2023/04/20 02:12:18;;;;;;;4.88;3.42;;;;;;;;;;5054320;28;20025;-75
2023/04/20 02:14:44;;;;;;;4.85;3.40;;;;;;;;;;5054457;28;20499;-75
2023/04/20 02:17:09;;;;;;;4.75;3.40;;;;;;;;;;5054568;28;20497;-76
2023/04/20 02:19:35;;;;;;;4.53;3.42;;;;;;;;;;5054531;28;20515;-74
2023/04/20 02:22:00;;;;;;;4.75;3.55;;;;;;;;;;5054461;28;20033;-74
2023/04/20 02:24:25;;;;;;;5.15;3.60;;;;;;;;;;5054261;28;20066;-76
2023/04/20 02:26:51;;;;;;;5.72;3.45;;;;;;;;;;5054408;28;20032;-75
2023/04/20 02:29:16;;;;;;;4.30;3.45;;;;;;;;;;5054473;28;20094;-74
2023/04/20 02:31:41;;;;;;;4.50;3.50;;;;;;;;;;5054553;28;20029;-75
2023/04/20 02:34:08;;;;;;;4.43;3.50;;;;;;;;;;5054566;28;20547;-73
2023/04/20 02:36:33;;;;;;;4.38;3.42;;;;;;;;;;5054028;28;20258;-75
2023/04/20 02:38:59;;;;;;;35.45;3.65;;;;;;;;;;5053567;28;20031;-82
2023/04/20 02:41:24;;;;;;;5.47;3.78;;;;;;;;;;5055987;28;20136;-78
2023/04/20 02:43:49;;;;;;;4.80;3.63;;;;;;;;;;5056388;28;20032;-79
2023/04/20 02:46:15;;;;;;;5.15;3.67;;;;;;;;;;5054556;28;20454;-75
2023/04/20 02:48:40;;;;;;;5.40;3.28;;;;;;;;;;5053159;28;20461;-78
2023/04/20 02:51:05;;;;;;;5.03;3.70;;;;;;;;;;5057145;28;20033;-79
2023/04/20 02:53:31;;;;;;;5.20;3.77;;;;;;;;;;5056840;28;20084;-77
2023/04/20 02:55:56;;;;;;;6.80;4.07;;;;;;;;;;5054114;28;20408;-77
2023/04/20 02:58:21;;;;;;;5.70;4.30;;;;;;;;;;5052537;28;20032;-77
2023/04/20 03:00:46;;;;;;;5.72;4.18;;;;;;;;;;5054204;28;20258;-77
2023/04/20 03:03:11;;;;;;;6.30;3.97;;;;;;;;;;5055539;28;20032;-75
2023/04/20 03:05:37;;;;;;;6.57;4.20;;;;;;;;;;5054926;28;20025;-74
2023/04/20 03:08:04;;;;;;;6.00;4.37;;;;;;;;;;5053525;28;20036;-75
2023/04/20 03:10:29;;;;;;;5.85;4.22;;;;;;;;;;5055627;28;20649;-74
2023/04/20 03:12:55;;;;;;;7.70;4.55;;;;;;;;;;5051995;28;20028;-73
2023/04/20 03:15:21;;;;;;;5.83;4.63;;;;;;;;;;5053306;28;20060;-73
2023/04/20 03:17:46;;;;;;;7.75;5.40;;;;;;;;;;5053069;28;20625;-73
2023/04/20 03:20:12;;;;;;;7.50;4.90;;;;;;;;;;5055137;28;20056;-74
2023/04/20 03:22:37;;;;;;;8.65;5.68;;;;;;;;;;5053869;28;20273;-73
2023/04/20 03:25:02;;;;;;;9.32;5.28;;;;;;;;;;5052487;28;20025;-75
2023/04/20 03:27:28;;;;;;;9.05;5.35;;;;;;;;;;5053143;28;20485;-74
2023/04/20 03:29:53;;;;;;;9.10;5.22;;;;;;;;;;5053073;28;20032;-74
2023/04/20 03:32:18;;;;;;;9.05;5.50;;;;;;;;;;5053186;28;20037;-72
2023/04/20 03:34:43;;;;;;;9.07;6.03;;;;;;;;;;5053573;28;20021;-73
2023/04/20 03:37:09;;;;;;;13.60;6.53;;;;;;;;;;5052979;28;20032;-73
2023/04/20 03:39:34;;;;;;;8.48;5.57;;;;;;;;;;5053501;28;20028;-73
2023/04/20 03:41:59;;;;;;;11.63;6.50;;;;;;;;;;5051604;28;20058;-74
2023/04/20 03:44:24;;;;;;;11.07;6.22;;;;;;;;;;5051463;28;20032;-75
2023/04/20 03:46:49;;;;;;;10.98;6.32;;;;;;;;;;5052858;28;20040;-74
2023/04/20 03:49:15;;;;;;;11.63;6.60;;;;;;;;;;5053048;28;20024;-74
2023/04/20 03:51:40;;;;;;;10.77;6.85;;;;;;;;;;5052738;28;20254;-74
2023/04/20 03:54:05;;;;;;;10.68;6.70;;;;;;;;;;5052672;28;20048;-73
2023/04/20 03:56:31;;;;;;;10.70;6.50;;;;;;;;;;5051623;28;20090;-74
2023/04/20 03:58:56;;;;;;;11.32;6.82;;;;;;;;;;5052809;28;20036;-75
2023/04/20 04:01:21;;;;;;;12.90;7.65;;;;;;;;;;5052426;28;20118;-74
2023/04/20 04:03:46;;;;;;;12.70;7.82;;;;;;;;;;5052656;28;20048;-74
2023/04/20 04:06:12;;;;;;;12.40;7.30;;;;;;;;;;5052583;28;20098;-74
2023/04/20 04:08:37;;;;;;;11.85;7.07;;;;;;;;;;5052753;28;20055;-75
2023/04/20 04:11:02;;;;;;;12.35;7.45;;;;;;;;;;5052736;28;20434;-74
2023/04/20 04:13:27;;;;;;;18.52;7.00;;;;;;;;;;5052302;28;20048;-74
2023/04/20 04:15:53;;;;;;;11.20;7.00;;;;;;;;;;5052989;28;20024;-75
2023/04/20 04:18:20;;;;;;;11.27;6.93;;;;;;;;;;5052474;28;20423;-73
2023/04/20 04:20:45;;;;;;;9.82;6.00;;;;;;;;;;5052923;28;20025;-73
2023/04/20 04:23:10;;;;;;;10.30;6.43;;;;;;;;;;5052599;28;20040;-72
2023/04/20 04:25:39;;;;;;;10.82;6.75;;;;;;;;;;5052535;28;20108;-74
2023/04/20 04:28:04;;;;;;;10.50;6.32;;;;;;;;;;5052495;28;20025;-75
2023/04/20 04:30:30;;;;;;;11.10;6.28;;;;;;;;;;5052666;28;20082;-75
2023/04/20 04:32:55;;;;;;;11.47;6.63;;;;;;;;;;5052405;28;20025;-74
2023/04/20 04:35:20;;;;;;;12.02;7.30;;;;;;;;;;5050956;28;20273;-75
2023/04/20 04:37:46;;;;;;;16.20;7.65;;;;;;;;;;5052335;28;20039;-74
2023/04/20 04:40:11;;;;;;;10.32;6.68;;;;;;;;;;5052388;28;20092;-74
2023/04/20 04:42:37;;;;;;;12.23;6.15;;;;;;;;;;5050948;28;20098;-76
2023/04/20 04:45:03;;;;;;;11.10;7.03;;;;;;;;;;5052233;28;20021;-74
2023/04/20 04:47:33;;;;;;;13.20;6.75;;;;;;;;;;5052825;28;20025;-74
2023/04/20 04:49:59;;;;;;;10.60;6.03;;;;;;;;;;5050941;28;20052;-74
2023/04/20 04:52:25;;;;;;;9.40;5.63;;;;;;;;;;5052024;28;20021;-74
2023/04/20 04:54:51;;;;;;;10.13;5.68;;;;;;;;;;5056110;28;20017;-75
2023/04/20 04:57:16;;;;;;;9.55;5.75;;;;;;;;;;5054850;28;20435;-74
2023/04/20 04:59:41;;;;;;;9.48;5.45;;;;;;;;;;5055754;28;20063;-74
2023/04/20 05:02:06;;;;;;;9.37;5.37;;;;;;;;;;5055846;28;20032;-73
2023/04/20 05:04:32;;;;;;;9.55;5.57;;;;;;;;;;5055066;28;20308;-75
2023/04/20 05:06:57;;;;;;;8.25;5.43;;;;;;;;;;5055551;28;20047;-75
2023/04/20 05:09:22;;;;;;;9.20;5.47;;;;;;;;;;5055897;28;20024;-74
2023/04/20 05:11:48;;;;;;;7.70;4.82;;;;;;;;;;5055385;28;20265;-74
2023/04/20 05:14:13;;;;;;;9.10;5.63;;;;;;;;;;5055668;28;20021;-74
2023/04/20 05:16:38;;;;;;;11.10;6.00;;;;;;;;;;5055309;28;20154;-73
2023/04/20 05:19:03;;;;;;;9.15;5.70;;;;;;;;;;5055322;28;20033;-74
2023/04/20 05:21:29;;;;;;;8.70;4.65;;;;;;;;;;5055419;28;20020;-74
2023/04/20 05:23:54;;;;;;;9.77;5.13;;;;;;;;;;5054960;28;20056;-75
2023/04/20 05:26:20;;;;;;;7.90;5.05;;;;;;;;;;5053972;28;20024;-73
2023/04/20 05:28:45;;;;;;;8.52;5.05;;;;;;;;;;5054018;28;20031;-74
2023/04/20 05:31:10;;;;;;;8.40;4.60;;;;;;;;;;5055482;28;20028;-74
2023/04/20 05:33:35;;;;;;;7.93;4.80;;;;;;;;;;5055346;28;20254;-74
2023/04/20 05:36:01;;;;;;;9.27;5.22;;;;;;;;;;5053942;28;20024;-73
2023/04/20 05:38:26;;;;;;;7.07;4.15;;;;;;;;;;5054028;28;20025;-73
2023/04/20 05:40:51;;;;;;;7.85;5.25;;;;;;;;;;5054036;28;20035;-76
2023/04/20 05:43:18;;;;;;;8.30;4.93;;;;;;;;;;5053934;28;20047;-74
2023/04/20 05:45:43;;;;;;;7.70;4.95;;;;;;;;;;5055263;28;20017;-73
2023/04/20 05:48:09;;;;;;;9.98;5.35;;;;;;;;;;5054998;28;20040;-74
2023/04/20 05:50:35;;;;;;;9.70;4.95;;;;;;;;;;5053863;28;20032;-75
2023/04/20 05:53:00;;;;;;;8.13;5.50;;;;;;;;;;5055296;28;20383;-74
2023/04/20 05:55:25;;;;;;;9.23;5.43;;;;;;;;;;5053428;28;20028;-75
2023/04/20 05:57:51;;;;;;;8.88;5.07;;;;;;;;;;5054873;28;20261;-74
2023/04/20 06:00:16;;;;;;;10.50;6.28;;;;;;;;;;5053360;28;20497;-75
2023/04/20 06:02:42;;;;;;;10.43;5.55;;;;;;;;;;5054411;28;20025;-73
2023/04/20 06:05:09;;;;;;;7.00;5.03;;;;;;;;;;5053647;28;20025;-74
2023/04/20 06:07:35;;;;;;;8.07;4.93;;;;;;;;;;5054498;28;20074;-74
2023/04/20 06:10:00;;;;;;;9.73;5.30;;;;;;;;;;5054624;28;20033;-73
2023/04/20 06:12:29;;;;;;;11.23;4.90;;;;;;;;;;5054432;28;20450;-74
2023/04/20 06:14:55;;;;;;;7.70;4.78;;;;;;;;;;5054904;28;20479;-75
2023/04/20 06:17:21;;;;;;;12.25;5.32;;;;;;;;;;5054558;28;20032;-75
2023/04/20 06:19:46;;;;;;;8.75;5.55;;;;;;;;;;5054628;28;20103;-75
2023/04/20 06:22:12;;;;;;;8.02;5.07;;;;;;;;;;5054071;28;20028;-73
2023/04/20 06:24:37;;;;;;;8.48;5.55;;;;;;;;;;5054183;28;20029;-74
2023/04/20 06:27:03;;;;;;;10.15;5.60;;;;;;;;;;5054553;28;20028;-73
2023/04/20 06:29:28;;;;;;;8.77;5.47;;;;;;;;;;5054013;28;20094;-75
2023/04/20 06:31:53;;;;;;;9.80;6.10;;;;;;;;;;5054211;28;20104;-74
2023/04/20 06:34:18;;;;;;;9.48;5.93;;;;;;;;;;5053904;28;20036;-74
2023/04/20 06:36:44;;;;;;;9.70;5.95;;;;;;;;;;5052695;28;20067;-75
2023/04/20 06:39:10;;;;;;;9.43;6.18;;;;;;;;;;5054137;28;20025;-74
2023/04/20 06:41:36;;;;;;;8.68;5.60;;;;;;;;;;5053965;28;20565;-75
2023/04/20 06:44:05;;;;;;;8.75;5.80;;;;;;;;;;5053338;28;20028;-74
2023/04/20 06:46:31;;;;;;;9.27;5.68;;;;;;;;;;5053782;28;20021;-74
2023/04/20 06:48:57;;;;;;;10.00;6.30;;;;;;;;;;5053555;28;20396;-73
2023/04/20 06:51:23;;;;;;;8.55;5.75;;;;;;;;;;5052192;28;20051;-73
2023/04/20 06:53:48;;;;;;;10.10;5.72;;;;;;;;;;5052628;28;20480;-73
2023/04/20 06:56:13;;;;;;;9.95;5.50;;;;;;;;;;5052621;28;20036;-73
2023/04/20 06:58:38;;;;;;;10.37;5.97;;;;;;;;;;5053433;28;20034;-74
2023/04/20 07:01:04;;;;;;;10.10;6.27;;;;;;;;;;5053563;28;20273;-74
2023/04/20 07:03:30;;;;;;;12.10;6.00;;;;;;;;;;5052086;28;20258;-73
2023/04/20 07:05:55;;;;;;;9.15;6.10;;;;;;;;;;5052869;28;20021;-74
2023/04/20 07:08:20;;;;;;;10.15;5.93;;;;;;;;;;5053246;28;20025;-74
2023/04/20 07:10:45;;;;;;;11.75;6.70;;;;;;;;;;5053259;28;20392;-73
2023/04/20 07:13:10;;;;;;;10.60;6.07;;;;;;;;;;5053426;28;20025;-74
2023/04/20 07:15:36;;;;;;;12.43;6.23;;;;;;;;;;5052580;28;20021;-74
2023/04/20 07:18:01;;;;;;;12.52;7.20;;;;;;;;;;5053117;28;20345;-74
2023/04/20 07:20:27;;;;;;;14.13;8.27;;;;;;;;;;5052241;28;20511;-74
2023/04/20 07:22:52;;;;;;;14.50;6.78;;;;;;;;;;5053007;28;20035;-74
2023/04/20 07:25:17;;;;;;;14.60;7.00;;;;;;;;;;5052529;28;20036;-74
2023/04/20 07:27:42;;;;;;;12.40;6.88;;;;;;;;;;5052945;28;20344;-73
2023/04/20 07:30:09;;;;;;;11.32;6.82;;;;;;;;;;5053435;28;20060;-74
2023/04/20 07:32:36;;;;;;;8.80;6.15;;;;;;;;;;5053050;28;20107;-74
2023/04/20 07:35:02;;;;;;;11.20;6.65;;;;;;;;;;5053061;28;20025;-74
2023/04/20 07:37:28;;;;;;;12.25;6.88;;;;;;;;;;5052745;28;20016;-75
2023/04/20 07:39:53;;;;;;;10.90;6.80;;;;;;;;;;5053125;28;20021;-73
2023/04/20 07:42:19;;;;;;;12.40;7.03;;;;;;;;;;5052025;28;20152;-73
2023/04/20 07:44:45;;;;;;;11.73;6.95;;;;;;;;;;5051610;28;20040;-73
2023/04/20 07:47:10;;;;;;;10.68;7.22;;;;;;;;;;5051847;28;20399;-74
2023/04/20 07:49:36;;;;;;;11.10;7.13;;;;;;;;;;5052673;28;20381;-74
2023/04/20 07:52:02;;;;;;;10.70;6.95;;;;;;;;;;5052757;28;20341;-73
2023/04/20 07:54:27;;;;;;;11.77;6.45;;;;;;;;;;5052960;28;20106;-74
2023/04/20 07:56:53;;;;;;;12.47;7.20;;;;;;;;;;5052754;28;20040;-74
2023/04/20 07:59:19;;;;;;;11.73;6.97;;;;;;;;;;5051664;28;20349;-74
2023/04/20 08:01:45;;;;;;;9.93;6.47;;;;;;;;;;5053106;28;20059;-74
2023/04/20 08:04:10;;;;;;;12.15;6.82;;;;;;;;;;5053220;28;20059;-74
2023/04/20 08:06:35;;;;;;;18.13;8.30;;;;;;;;;;5052697;28;20056;-74
2023/04/20 08:09:02;;;;;;;11.63;7.10;;;;;;;;;;5052959;28;20304;-74
2023/04/20 08:11:28;;;;;;;11.95;7.03;;;;;;;;;;5052896;28;20265;-74
2023/04/20 08:13:53;;;;;;;12.02;7.18;;;;;;;;;;5051542;28;20028;-74
2023/04/20 08:16:18;;;;;;;11.85;7.30;;;;;;;;;;5051550;28;20021;-74
2023/04/20 08:18:44;;;;;;;12.63;7.22;;;;;;;;;;5053016;28;20103;-74
2023/04/20 08:21:09;;;;;;;13.25;7.18;;;;;;;;;;5051648;28;20074;-74
2023/04/20 08:23:35;;;;;;;11.70;7.72;;;;;;;;;;5051582;28;20028;-74
2023/04/20 08:26:00;;;;;;;14.10;7.60;;;;;;;;;;5053646;28;20033;-74
2023/04/20 08:28:25;;;;;;;10.95;7.40;;;;;;;;;;5057353;28;20150;-74
2023/04/20 08:30:52;;;;;;;13.00;7.40;;;;;;;;;;5055685;28;20107;-74
2023/04/20 08:33:17;;;;;;;11.57;7.25;;;;;;;;;;5056794;28;20091;-74
2023/04/20 08:35:43;;;;;;;14.23;7.90;;;;;;;;;;5056532;28;20458;-74
2023/04/20 08:38:08;;;;;;;18.42;7.28;;;;;;;;;;5055368;28;20125;-75
2023/04/20 08:40:35;;;;;;;10.15;6.78;;;;;;;;;;5056210;28;20039;-74
2023/04/20 08:43:01;;;;;;;11.00;7.28;;;;;;;;;;5056681;28;20032;-74
2023/04/20 08:45:26;;;;;;;12.68;8.02;;;;;;;;;;5055918;28;20029;-74
2023/04/20 08:47:52;;;;;;;12.88;7.80;;;;;;;;;;5055065;28;20504;-74
2023/04/20 08:50:18;;;;;;;12.60;7.10;;;;;;;;;;5056262;28;20021;-74
2023/04/20 08:52:44;;;;;;;14.32;8.27;;;;;;;;;;5054828;28;20032;-74
2023/04/20 08:55:09;;;;;;;14.25;8.10;;;;;;;;;;5056449;28;20017;-74
2023/04/20 08:57:35;;;;;;;15.40;8.18;;;;;;;;;;5055928;28;20060;-74
2023/04/20 09:00:04;;;;;;;14.93;8.25;;;;;;;;;;5054698;28;20404;-73
2023/04/20 09:02:29;;;;;;;17.08;8.15;;;;;;;;;;5055657;28;20396;-73
2023/04/20 09:05:04;;;;;;;12.52;8.00;;;;;;;;;;5055622;28;20025;-73
2023/04/20 09:07:30;;;;;;;14.10;8.20;;;;;;;;;;5054483;28;20028;-74
2023/04/20 09:09:57;;;;;;;14.95;8.43;;;;;;;;;;5055657;28;20021;-74
2023/04/20 09:12:23;;;;;;;11.27;7.82;;;;;;;;;;5055530;28;20037;-75
2023/04/20 09:14:49;;;;;;;13.98;8.15;;;;;;;;;;5055545;28;20029;-74
2023/04/20 09:17:16;;;;;;;13.65;8.77;;;;;;;;;;5054845;28;20025;-74
2023/04/20 09:19:51;;;;;;;16.10;8.85;;;;;;;;;;5056220;28;20391;-74
2023/04/20 09:22:16;;;;;;;13.82;8.73;;;;;;;;;;5056024;28;20025;-73
2023/04/20 09:24:42;;;;;;;13.93;8.33;;;;;;;;;;5054131;28;20125;-73
2023/04/20 09:27:17;;;;;;;13.43;8.10;;;;;;;;;;5055574;28;20293;-74
2023/04/20 09:29:42;;;;;;;13.23;8.63;;;;;;;;;;5056273;28;20252;-77
2023/04/20 09:32:20;;;;;;;14.88;7.93;;;;;;;;;;5053991;28;20025;-75
2023/04/20 09:34:45;;;;;;;15.80;9.20;;;;;;;;;;5055299;28;20017;-76
2023/04/20 09:37:14;;;;;;;15.13;9.40;;;;;;;;;;5057290;28;20027;-76
2023/04/20 09:39:42;;;;;;;14.32;9.50;;;;;;;;;;5054480;28;20699;-80
2023/04/20 09:42:11;;;;;;;19.08;10.27;;;;;;;;;;5054806;28;20446;-74
2023/04/20 09:44:37;;;;;;;14.52;9.80;;;;;;;;;;5054885;28;20025;-79
2023/04/20 09:47:03;;;;;;;17.15;9.27;;;;;;;;;;5055118;28;20048;-76
2023/04/20 09:49:29;;;;;;;17.13;10.52;;;;;;;;;;5056131;28;20025;-76
2023/04/20 09:51:55;;;;;;;13.52;8.60;;;;;;;;;;5055310;28;20431;-79
2023/04/20 09:54:21;;;;;;;13.50;8.32;;;;;;;;;;5056175;28;20025;-80
2023/04/20 09:56:47;;;;;;;17.13;8.93;;;;;;;;;;5058839;28;20039;-80
2023/04/20 09:59:13;;;;;;;17.42;9.32;;;;;;;;;;5057665;28;20025;-75
2023/04/20 10:01:38;;;;;;;14.70;8.85;;;;;;;;;;5056662;28;20463;-74
2023/04/20 10:04:09;;;;;;;14.57;9.38;;;;;;;;;;5054485;28;20123;-75
2023/04/20 10:06:35;;;;;;;15.68;9.18;;;;;;;;;;5052841;28;20119;-74
2023/04/20 10:09:02;;;;;;;19.50;9.82;;;;;;;;;;5055495;28;20029;-74
2023/04/20 10:11:36;;;;;;;14.55;8.82;;;;;;;;;;5054067;28;20033;-83
2023/04/20 10:14:13;;;;;;;;;;;;;;;;;;5058612;28;20029;-78
2023/04/20 10:16:38;;;;;;;10.13;6.10;;;;;;;;;;5056257;28;20015;-77
2023/04/20 10:19:03;;;;;;;15.00;7.57;;;;;;;;;;5056566;28;20082;-79
2023/04/20 10:21:31;;;;;;;17.45;9.45;;;;;;;;;;5056406;28;20021;-79
2023/04/20 10:23:59;;;;;;;13.90;8.15;;;;;;;;;;5055335;28;20032;-83
2023/04/20 10:26:36;;;;;;;14.95;9.38;;;;;;;;;;5054420;28;20017;-76
2023/04/20 10:29:01;;;;;;;16.73;9.20;;;;;;;;;;5054574;28;20484;-76
2023/04/20 10:31:34;;;;;;;14.40;6.95;;;;;;;;;;5054460;28;20032;-76
2023/04/20 10:34:00;;;;;;;18.13;9.02;;;;;;;;;;5054789;28;20032;-76
2023/04/20 10:36:35;;;;;;;14.88;9.02;;;;;;;;;;5054747;28;20033;-76
2023/04/20 10:39:03;;;;;;;17.95;9.23;;;;;;;;;;5054304;28;20431;-79
2023/04/20 10:41:29;;;;;;;16.95;9.35;;;;;;;;;;5056111;28;20025;-78
2023/04/20 10:43:54;;;;;;;16.33;8.73;;;;;;;;;;5054502;28;20480;-80
2023/04/20 10:46:22;;;;;;;17.37;10.17;;;;;;;;;;5057054;28;20028;-80
2023/04/20 10:48:55;;;;;;;15.60;9.02;;;;;;;;;;5054711;28;20293;-83
2023/04/20 10:51:21;;;;;;;13.80;8.52;;;;;;;;;;5055934;28;20159;-75
2023/04/20 10:54:00;;;;;;;11.18;6.65;;;;;;;;;;5052952;28;20029;-79
2023/04/20 10:56:26;;;;;;;15.18;9.15;;;;;;;;;;5052948;28;20446;-77
2023/04/20 10:58:52;;;;;;;15.45;9.43;;;;;;;;;;5053903;28;20112;-79
2023/04/20 11:01:17;;;;;;;16.10;9.25;;;;;;;;;;5053561;28;20495;-75
2023/04/20 11:03:50;;;;;;;16.42;9.82;;;;;;;;;;5054472;28;20029;-76
2023/04/20 11:06:15;;;;;;;14.02;8.68;;;;;;;;;;5053331;28;20036;-73
2023/04/20 11:08:42;;;;;;;14.00;7.72;;;;;;;;;;5054624;28;20388;-74
2023/04/20 11:11:23;;;;;;;15.10;8.75;;;;;;;;;;5053315;28;20021;-74
2023/04/20 11:13:49;;;;;;;16.15;9.68;;;;;;;;;;5053608;28;20082;-73
2023/04/20 11:16:16;;;;;;;10.70;7.38;;;;;;;;;;5053442;28;20033;-73
2023/04/20 11:18:52;;;;;;;17.83;10.52;;;;;;;;;;5051977;28;20048;-79
2023/04/20 11:21:19;;;;;;;17.40;9.85;;;;;;;;;;5053462;28;20035;-74
2023/04/20 11:23:44;;;;;;;18.58;10.07;;;;;;;;;;5052198;28;20025;-73
2023/04/20 11:26:10;;;;;;;15.68;9.57;;;;;;;;;;5052572;28;20488;-74
2023/04/20 11:28:36;;;;;;;18.05;10.60;;;;;;;;;;5052012;28;20415;-73
2023/04/20 11:31:01;;;;;;;16.02;9.30;;;;;;;;;;5052011;28;20029;-74
2023/04/20 11:33:28;;;;;;;17.08;10.88;;;;;;;;;;5052885;28;20499;-74
2023/04/20 11:35:55;;;;;;;16.98;9.75;;;;;;;;;;5053405;28;20029;-74
2023/04/20 11:38:31;;;;;;;15.88;9.88;;;;;;;;;;5051765;28;20021;-74
2023/04/20 11:40:58;;;;;;;16.85;9.60;;;;;;;;;;5052850;28;20025;-74
2023/04/20 11:43:24;;;;;;;17.35;10.45;;;;;;;;;;5052813;28;20388;-74
2023/04/20 11:45:50;;;;;;;17.88;9.88;;;;;;;;;;5052983;28;20030;-74
2023/04/20 11:48:17;;;;;;;16.70;9.98;;;;;;;;;;5053137;28;20028;-74
2023/04/20 11:50:42;;;;;;;17.23;10.02;;;;;;;;;;5052928;28;20025;-74
2023/04/20 11:53:09;;;;;;;23.38;11.38;;;;;;;;;;5051558;28;20131;-74
2023/04/20 11:55:34;;;;;;;16.23;9.65;;;;;;;;;;5052838;28;20021;-74
2023/04/20 11:57:59;;;;;;;18.90;10.23;;;;;;;;;;5052782;28;20095;-73
2023/04/20 12:00:24;;;;;;;16.50;10.17;;;;;;;;;;5052719;28;20253;-73
2023/04/20 12:02:50;;;;;;;17.77;10.88;;;;;;;;;;5056568;28;20284;-73
2023/04/20 12:05:15;;;;;;;20.88;11.63;;;;;;;;;;5057050;28;20059;-74
2023/04/20 12:07:40;;;;;;;16.40;10.80;;;;;;;;;;5056001;28;20458;-73
2023/04/20 12:10:07;;;;;;;20.17;10.48;;;;;;;;;;5057074;28;20021;-73
2023/04/20 12:12:32;;;;;;;20.10;11.60;;;;;;;;;;5057129;28;20044;-73
2023/04/20 12:14:58;;;;;;;17.38;10.95;;;;;;;;;;5055933;28;20017;-74
2023/04/20 12:17:23;;;;;;;19.50;11.45;;;;;;;;;;5055890;28;20032;-73
2023/04/20 12:19:49;;;;;;;18.80;11.37;;;;;;;;;;5056801;28;20377;-73
2023/04/20 12:22:14;;;;;;;23.23;11.93;;;;;;;;;;5055303;28;20324;-74
2023/04/20 12:24:39;;;;;;;21.55;12.30;;;;;;;;;;5056552;28;20029;-73
2023/04/20 12:27:05;;;;;;;20.43;11.73;;;;;;;;;;5056472;28;20029;-73
2023/04/20 12:29:31;;;;;;;11.48;7.63;;;;;;;;;;5055163;28;20298;-74
2023/04/20 12:31:57;;;;;;;21.30;11.77;;;;;;;;;;5056592;28;20100;-74
2023/04/20 12:34:22;;;;;;;19.83;10.73;;;;;;;;;;5056296;28;20459;-74
2023/04/20 12:36:47;;;;;;;20.40;11.88;;;;;;;;;;5056481;28;20357;-74
2023/04/20 12:39:13;;;;;;;16.97;9.27;;;;;;;;;;5056330;28;20028;-74
2023/04/20 12:41:39;;;;;;;19.50;10.52;;;;;;;;;;5056368;28;20264;-74
2023/04/20 12:44:05;;;;;;;19.05;11.00;;;;;;;;;;5056524;28;20151;-74
2023/04/20 12:46:30;;;;;;;13.63;8.10;;;;;;;;;;5056540;28;20527;-74
2023/04/20 12:48:55;;;;;;;20.80;10.87;;;;;;;;;;5057019;28;20815;-74
2023/04/20 12:51:21;;;;;;;18.73;10.70;;;;;;;;;;5056025;28;20741;-75
2023/04/20 12:53:46;;;;;;;14.77;8.98;;;;;;;;;;5055880;28;20025;-74
2023/04/20 12:56:11;;;;;;;18.13;11.10;;;;;;;;;;5056174;28;20536;-74
2023/04/20 12:58:36;;;;;;;19.30;10.57;;;;;;;;;;5054610;28;20729;-74
2023/04/20 13:01:02;;;;;;;17.85;10.27;;;;;;;;;;5055892;28;20115;-75
2023/04/20 13:03:27;;;;;;;16.38;10.23;;;;;;;;;;5055474;28;20060;-75
2023/04/20 13:05:53;;;;;;;21.15;7.88;;;;;;;;;;5054531;28;20052;-74
2023/04/20 13:08:18;;;;;;;18.60;9.53;;;;;;;;;;5054400;28;20035;-74
2023/04/20 13:10:44;;;;;;;14.07;7.90;;;;;;;;;;5054256;28;20262;-74
2023/04/20 13:13:10;;;;;;;16.95;8.30;;;;;;;;;;5055237;28;20024;-74
2023/04/20 13:15:35;;;;;;;12.20;6.85;;;;;;;;;;5055655;28;20079;-74
2023/04/20 13:18:01;;;;;;;15.75;9.73;;;;;;;;;;5055520;28;20419;-74
2023/04/20 13:20:28;;;;;;;14.43;8.85;;;;;;;;;;5055610;28;20033;-75
2023/04/20 13:22:56;;;;;;;14.43;8.70;;;;;;;;;;5055426;28;20025;-74
2023/04/20 13:25:22;;;;;;;15.38;8.80;;;;;;;;;;5055430;28;20130;-73
2023/04/20 13:27:47;;;;;;;17.40;9.30;;;;;;;;;;5054080;28;20033;-74
2023/04/20 13:30:12;;;;;;;14.50;9.47;;;;;;;;;;5054083;28;20025;-74
2023/04/20 13:32:38;;;;;;;18.40;9.68;;;;;;;;;;5055297;28;20313;-74
2023/04/20 13:35:03;;;;;;;15.10;8.93;;;;;;;;;;5054002;28;20029;-74
2023/04/20 13:37:31;;;;;;;14.30;9.25;;;;;;;;;;5055710;28;20270;-74
2023/04/20 13:39:57;;;;;;;14.32;9.52;;;;;;;;;;5053819;28;20074;-74
2023/04/20 13:42:22;;;;;;;15.35;9.13;;;;;;;;;;5055145;28;20020;-74
2023/04/20 13:44:47;;;;;;;14.73;8.90;;;;;;;;;;5054758;28;20124;-74
2023/04/20 13:47:12;;;;;;;17.02;9.63;;;;;;;;;;5055004;28;20313;-74
2023/04/20 13:49:38;;;;;;;16.92;9.73;;;;;;;;;;5055265;28;20033;-74
2023/04/20 13:52:03;;;;;;;15.70;9.23;;;;;;;;;;5054788;28;20035;-74
2023/04/20 13:54:28;;;;;;;17.05;9.95;;;;;;;;;;5053594;28;20254;-74
2023/04/20 13:56:53;;;;;;;17.50;9.80;;;;;;;;;;5053689;28;20024;-74
2023/04/20 13:59:19;;;;;;;15.82;8.93;;;;;;;;;;5054619;28;20021;-74
2023/04/20 14:01:44;;;;;;;15.53;9.13;;;;;;;;;;5054914;28;20105;-75
2023/04/20 14:04:09;;;;;;;13.38;8.80;;;;;;;;;;5054539;28;20286;-74
2023/04/20 14:06:34;;;;;;;15.13;8.80;;;;;;;;;;5054507;28;20553;-73
2023/04/20 14:09:00;;;;;;;12.82;8.02;;;;;;;;;;5054450;28;20028;-74
2023/04/20 14:11:25;;;;;;;16.80;8.95;;;;;;;;;;5054315;28;20450;-74
2023/04/20 14:13:51;;;;;;;15.40;9.10;;;;;;;;;;5054313;28;20020;-75
2023/04/20 14:16:16;;;;;;;15.60;8.68;;;;;;;;;;5052940;28;20448;-74
2023/04/20 14:18:41;;;;;;;15.20;8.85;;;;;;;;;;5054342;28;20032;-73
2023/04/20 14:21:07;;;;;;;15.20;8.43;;;;;;;;;;5054746;28;20043;-73
2023/04/20 14:23:32;;;;;;;14.40;8.85;;;;;;;;;;5054206;28;20029;-75
2023/04/20 14:25:57;;;;;;;15.80;8.53;;;;;;;;;;5053961;28;20054;-73